sensor_id;sensor_type;location;lat;lon;timestamp;P1;durP1;ratioP1;P2;durP2;ratioP2
10767;SDS011;5436;51.162;4.162;2022-08-25T09:32:52;3.30;;;2.40;;
10767;SDS011;5436;51.162;4.162;2022-08-25T09:38:41;4.47;;;2.90;;
10767;SDS011;5436;51.162;4.162;2022-08-25T09:42:06;4.25;;;2.90;;
10767;SDS011;5436;51.162;4.162;2022-08-25T09:44:38;5.15;;;2.92;;
10767;SDS011;5436;51.162;4.162;2022-08-25T09:48:00;5.90;;;2.85;;
10767;SDS011;5436;51.162;4.162;2022-08-25T09:57:37;6.82;;;3.50;;
10767;SDS011;5436;51.162;4.162;2022-08-25T10:00:25;5.38;;;2.95;;
10767;SDS011;5436;51.162;4.162;2022-08-25T10:08:30;4.03;;;2.80;;
10767;SDS011;5436;51.162;4.162;2022-08-25T10:11:07;5.40;;;2.92;;
10767;SDS011;5436;51.162;4.162;2022-08-25T10:13:40;3.22;;;2.42;;
10767;SDS011;5436;51.162;4.162;2022-08-25T10:16:12;5.88;;;2.38;;
10767;SDS011;5436;51.162;4.162;2022-08-25T10:21:36;6.53;;;3.10;;
10767;SDS011;5436;51.162;4.162;2022-08-25T10:24:07;5.78;;;2.90;;
10767;SDS011;5436;51.162;4.162;2022-08-25T10:26:46;3.85;;;2.67;;
10767;SDS011;5436;51.162;4.162;2022-08-25T10:32:25;4.82;;;3.03;;
10767;SDS011;5436;51.162;4.162;2022-08-25T10:35:05;6.25;;;3.08;;
10767;SDS011;5436;51.162;4.162;2022-08-25T10:37:41;5.78;;;2.58;;
10767;SDS011;5436;51.162;4.162;2022-08-25T10:40:20;4.38;;;2.88;;
10767;SDS011;5436;51.162;4.162;2022-08-25T10:43:03;3.67;;;2.60;;
10767;SDS011;5436;51.162;4.162;2022-08-25T10:45:35;5.55;;;2.70;;
10767;SDS011;5436;51.162;4.162;2022-08-25T10:54:30;3.97;;;2.50;;
10767;SDS011;5436;51.162;4.162;2022-08-25T10:57:08;3.67;;;2.55;;
10767;SDS011;5436;51.162;4.162;2022-08-25T10:59:53;4.57;;;2.90;;
10767;SDS011;5436;51.162;4.162;2022-08-25T11:05:33;5.35;;;2.70;;
10767;SDS011;5436;51.162;4.162;2022-08-25T11:08:09;4.53;;;3.08;;
10767;SDS011;5436;51.162;4.162;2022-08-25T11:10:45;3.72;;;2.75;;
10767;SDS011;5436;51.162;4.162;2022-08-25T11:13:19;6.00;;;2.50;;
10767;SDS011;5436;51.162;4.162;2022-08-25T11:15:59;2.85;;;2.35;;
10767;SDS011;5436;51.162;4.162;2022-08-25T11:18:33;2.50;;;2.22;;
10767;SDS011;5436;51.162;4.162;2022-08-25T11:21:06;5.03;;;2.28;;
10767;SDS011;5436;51.162;4.162;2022-08-25T11:23:40;5.95;;;2.58;;
10767;SDS011;5436;51.162;4.162;2022-08-25T11:26:18;3.95;;;2.47;;
10767;SDS011;5436;51.162;4.162;2022-08-25T11:28:56;3.25;;;2.47;;
10767;SDS011;5436;51.162;4.162;2022-08-25T11:31:32;3.60;;;2.33;;
10767;SDS011;5436;51.162;4.162;2022-08-25T11:34:09;4.95;;;2.55;;
10767;SDS011;5436;51.162;4.162;2022-08-25T11:36:41;3.58;;;2.47;;
10767;SDS011;5436;51.162;4.162;2022-08-25T11:46:07;6.38;;;2.40;;
10767;SDS011;5436;51.162;4.162;2022-08-25T11:48:59;3.53;;;2.20;;
10767;SDS011;5436;51.162;4.162;2022-08-25T11:51:47;3.50;;;2.30;;
10767;SDS011;5436;51.162;4.162;2022-08-25T11:54:20;2.63;;;2.40;;
10767;SDS011;5436;51.162;4.162;2022-08-25T11:56:54;2.78;;;2.25;;
10767;SDS011;5436;51.162;4.162;2022-08-25T12:09:18;3.13;;;2.30;;
10767;SDS011;5436;51.162;4.162;2022-08-25T12:11:54;3.05;;;2.10;;
10767;SDS011;5436;51.162;4.162;2022-08-25T12:23:06;3.85;;;2.55;;
10767;SDS011;5436;51.162;4.162;2022-08-25T12:25:44;3.65;;;2.28;;
10767;SDS011;5436;51.162;4.162;2022-08-25T12:28:30;7.88;;;4.30;;
10767;SDS011;5436;51.162;4.162;2022-08-25T12:38:15;10.63;;;7.50;;
10767;SDS011;5436;51.162;4.162;2022-08-25T12:44:45;9.27;;;7.38;;
10767;SDS011;5436;51.162;4.162;2022-08-25T12:47:26;11.38;;;6.75;;
10767;SDS011;5436;51.162;4.162;2022-08-25T12:53:08;10.30;;;7.25;;
10767;SDS011;5436;51.162;4.162;2022-08-25T13:11:43;11.85;;;7.63;;
10767;SDS011;5436;51.162;4.162;2022-08-25T13:14:17;10.23;;;7.32;;
10767;SDS011;5436;51.162;4.162;2022-08-25T13:16:53;8.57;;;6.25;;
10767;SDS011;5436;51.162;4.162;2022-08-25T13:19:23;10.82;;;6.57;;
10767;SDS011;5436;51.162;4.162;2022-08-25T13:21:53;8.80;;;6.22;;
10767;SDS011;5436;51.162;4.162;2022-08-25T13:24:25;6.78;;;5.50;;
10767;SDS011;5436;51.162;4.162;2022-08-25T13:27:00;9.00;;;6.15;;
10767;SDS011;5436;51.162;4.162;2022-08-25T13:29:34;8.20;;;5.38;;
10767;SDS011;5436;51.162;4.162;2022-08-25T13:32:17;7.00;;;5.00;;
10767;SDS011;5436;51.162;4.162;2022-08-25T13:35:06;6.35;;;5.10;;
10767;SDS011;5436;51.162;4.162;2022-08-25T13:37:38;11.32;;;5.32;;
10767;SDS011;5436;51.162;4.162;2022-08-25T13:40:09;7.15;;;5.00;;
10767;SDS011;5436;51.162;4.162;2022-08-25T13:42:44;8.73;;;5.65;;
10767;SDS011;5436;51.162;4.162;2022-08-25T13:45:15;10.20;;;5.80;;
10767;SDS011;5436;51.162;4.162;2022-08-25T13:47:48;5.90;;;5.05;;
10767;SDS011;5436;51.162;4.162;2022-08-25T13:50:20;9.40;;;5.60;;
10767;SDS011;5436;51.162;4.162;2022-08-25T13:53:00;9.10;;;5.57;;
10767;SDS011;5436;51.162;4.162;2022-08-25T13:55:33;9.70;;;5.80;;
10767;SDS011;5436;51.162;4.162;2022-08-25T13:58:10;8.07;;;5.82;;
10767;SDS011;5436;51.162;4.162;2022-08-25T14:00:46;9.98;;;4.95;;
10767;SDS011;5436;51.162;4.162;2022-08-25T14:03:38;8.68;;;4.43;;
10767;SDS011;5436;51.162;4.162;2022-08-25T14:06:18;7.93;;;5.50;;
10767;SDS011;5436;51.162;4.162;2022-08-25T14:09:03;9.95;;;5.25;;
10767;SDS011;5436;51.162;4.162;2022-08-25T14:11:41;8.38;;;5.53;;
10767;SDS011;5436;51.162;4.162;2022-08-25T14:14:29;6.60;;;4.82;;
10767;SDS011;5436;51.162;4.162;2022-08-25T14:17:00;7.95;;;5.15;;
10767;SDS011;5436;51.162;4.162;2022-08-25T14:19:44;8.15;;;4.53;;
10767;SDS011;5436;51.162;4.162;2022-08-25T14:26:32;10.85;;;4.90;;
10767;SDS011;5436;51.162;4.162;2022-08-25T14:29:08;7.03;;;4.40;;
10767;SDS011;5436;51.162;4.162;2022-08-25T14:31:59;8.40;;;5.38;;
10767;SDS011;5436;51.162;4.162;2022-08-25T14:37:55;11.07;;;5.30;;
10767;SDS011;5436;51.162;4.162;2022-08-25T14:40:24;13.18;;;8.35;;
10767;SDS011;5436;51.162;4.162;2022-08-25T14:42:54;12.85;;;9.70;;
10767;SDS011;5436;51.162;4.162;2022-08-25T14:45:32;17.13;;;9.90;;
10767;SDS011;5436;51.162;4.162;2022-08-25T14:52:09;11.40;;;8.98;;
10767;SDS011;5436;51.162;4.162;2022-08-25T14:55:15;16.52;;;12.15;;
10767;SDS011;5436;51.162;4.162;2022-08-25T14:57:44;15.18;;;12.60;;
10767;SDS011;5436;51.162;4.162;2022-08-25T15:06:27;23.42;;;16.65;;
10767;SDS011;5436;51.162;4.162;2022-08-25T15:09:01;17.50;;;14.45;;
10767;SDS011;5436;51.162;4.162;2022-08-25T15:14:04;18.00;;;13.15;;
10767;SDS011;5436;51.162;4.162;2022-08-25T15:16:41;17.92;;;14.05;;
10767;SDS011;5436;51.162;4.162;2022-08-25T15:29:35;19.65;;;14.13;;
10767;SDS011;5436;51.162;4.162;2022-08-25T15:32:05;16.33;;;13.20;;
10767;SDS011;5436;51.162;4.162;2022-08-25T15:34:41;14.48;;;11.52;;
10767;SDS011;5436;51.162;4.162;2022-08-25T15:39:50;17.63;;;13.48;;
10767;SDS011;5436;51.162;4.162;2022-08-25T15:42:21;17.80;;;12.43;;
10767;SDS011;5436;51.162;4.162;2022-08-25T15:45:05;18.35;;;12.13;;
10767;SDS011;5436;51.162;4.162;2022-08-25T15:47:42;17.15;;;12.85;;
10767;SDS011;5436;51.162;4.162;2022-08-25T15:50:12;21.40;;;14.20;;
10767;SDS011;5436;51.162;4.162;2022-08-25T15:52:44;17.92;;;12.55;;
10767;SDS011;5436;51.162;4.162;2022-08-25T15:55:17;19.20;;;12.27;;
10767;SDS011;5436;51.162;4.162;2022-08-25T15:57:50;14.45;;;11.85;;
10767;SDS011;5436;51.162;4.162;2022-08-25T16:00:25;17.05;;;11.70;;
10767;SDS011;5436;51.162;4.162;2022-08-25T16:03:07;19.92;;;10.20;;
10767;SDS011;5436;51.162;4.162;2022-08-25T16:05:38;17.88;;;12.27;;
10767;SDS011;5436;51.162;4.162;2022-08-25T16:08:09;18.58;;;12.43;;
10767;SDS011;5436;51.162;4.162;2022-08-25T16:10:44;20.85;;;13.77;;
10767;SDS011;5436;51.162;4.162;2022-08-25T16:13:15;20.25;;;13.45;;
10767;SDS011;5436;51.162;4.162;2022-08-25T16:15:48;18.23;;;12.77;;
10767;SDS011;5436;51.162;4.162;2022-08-25T16:18:18;19.13;;;14.02;;
10767;SDS011;5436;51.162;4.162;2022-08-25T16:20:48;21.95;;;16.05;;
10767;SDS011;5436;51.162;4.162;2022-08-25T16:23:17;24.63;;;17.63;;
10767;SDS011;5436;51.162;4.162;2022-08-25T16:25:49;28.27;;;18.60;;
10767;SDS011;5436;51.162;4.162;2022-08-25T16:28:18;23.90;;;16.90;;
10767;SDS011;5436;51.162;4.162;2022-08-25T16:30:48;21.60;;;16.17;;
10767;SDS011;5436;51.162;4.162;2022-08-25T16:33:17;22.90;;;15.47;;
10767;SDS011;5436;51.162;4.162;2022-08-25T16:35:45;27.20;;;17.97;;
10767;SDS011;5436;51.162;4.162;2022-08-25T16:38:14;25.43;;;18.83;;
10767;SDS011;5436;51.162;4.162;2022-08-25T16:40:44;24.90;;;17.40;;
10767;SDS011;5436;51.162;4.162;2022-08-25T16:43:17;25.97;;;17.70;;
10767;SDS011;5436;51.162;4.162;2022-08-25T16:45:46;27.03;;;17.87;;
10767;SDS011;5436;51.162;4.162;2022-08-25T16:48:14;28.23;;;19.47;;
10767;SDS011;5436;51.162;4.162;2022-08-25T16:50:44;23.77;;;16.47;;
10767;SDS011;5436;51.162;4.162;2022-08-25T16:53:13;23.60;;;17.93;;
10767;SDS011;5436;51.162;4.162;2022-08-25T16:55:59;26.60;;;16.47;;
10767;SDS011;5436;51.162;4.162;2022-08-25T16:58:31;28.70;;;15.87;;
10767;SDS011;5436;51.162;4.162;2022-08-25T17:01:05;27.77;;;16.90;;
10767;SDS011;5436;51.162;4.162;2022-08-25T17:03:35;24.40;;;16.87;;
10767;SDS011;5436;51.162;4.162;2022-08-25T17:06:07;26.07;;;16.20;;
10767;SDS011;5436;51.162;4.162;2022-08-25T17:08:35;24.13;;;17.93;;
10767;SDS011;5436;51.162;4.162;2022-08-25T17:11:05;26.17;;;17.80;;
10767;SDS011;5436;51.162;4.162;2022-08-25T17:13:38;26.10;;;17.53;;
10767;SDS011;5436;51.162;4.162;2022-08-25T17:16:09;27.23;;;18.97;;
10767;SDS011;5436;51.162;4.162;2022-08-25T17:18:40;23.07;;;17.70;;
10767;SDS011;5436;51.162;4.162;2022-08-25T17:21:11;25.50;;;17.43;;
10767;SDS011;5436;51.162;4.162;2022-08-25T17:23:41;26.47;;;17.80;;
10767;SDS011;5436;51.162;4.162;2022-08-25T17:26:12;25.77;;;17.87;;
10767;SDS011;5436;51.162;4.162;2022-08-25T17:28:45;23.47;;;16.50;;
10767;SDS011;5436;51.162;4.162;2022-08-25T17:31:14;21.23;;;15.67;;
10767;SDS011;5436;51.162;4.162;2022-08-25T17:33:51;26.50;;;16.23;;
10767;SDS011;5436;51.162;4.162;2022-08-25T17:36:37;26.83;;;15.80;;
10767;SDS011;5436;51.162;4.162;2022-08-25T17:39:35;23.77;;;14.80;;
10767;SDS011;5436;51.162;4.162;2022-08-25T17:47:35;23.53;;;12.93;;
10767;SDS011;5436;51.162;4.162;2022-08-25T17:50:13;24.10;;;13.73;;
10767;SDS011;5436;51.162;4.162;2022-08-25T17:53:00;20.13;;;12.97;;
10767;SDS011;5436;51.162;4.162;2022-08-25T17:57:16;16.53;;;12.03;;
10767;SDS011;5436;51.162;4.162;2022-08-25T17:59:16;21.30;;;11.77;;
10767;SDS011;5436;51.162;4.162;2022-08-25T18:02:27;23.67;;;11.57;;
10767;SDS011;5436;51.162;4.162;2022-08-25T18:05:23;17.27;;;10.33;;
10767;SDS011;5436;51.162;4.162;2022-08-25T18:08:01;15.10;;;9.43;;
10767;SDS011;5436;51.162;4.162;2022-08-25T18:13:32;15.77;;;8.70;;
10767;SDS011;5436;51.162;4.162;2022-08-25T18:16:06;18.53;;;9.07;;
10767;SDS011;5436;51.162;4.162;2022-08-25T18:21:23;12.73;;;6.63;;
10767;SDS011;5436;51.162;4.162;2022-08-25T18:23:52;19.83;;;6.53;;
10767;SDS011;5436;51.162;4.162;2022-08-25T18:26:21;11.63;;;5.50;;
10767;SDS011;5436;51.162;4.162;2022-08-25T18:28:50;14.83;;;5.80;;
10767;SDS011;5436;51.162;4.162;2022-08-25T18:31:20;10.27;;;5.10;;
10767;SDS011;5436;51.162;4.162;2022-08-25T18:37:15;11.23;;;5.23;;
10767;SDS011;5436;51.162;4.162;2022-08-25T18:40:00;14.07;;;5.77;;
10767;SDS011;5436;51.162;4.162;2022-08-25T18:42:54;13.80;;;5.47;;
10767;SDS011;5436;51.162;4.162;2022-08-25T18:45:48;10.17;;;5.80;;
10767;SDS011;5436;51.162;4.162;2022-08-25T18:48:38;14.77;;;5.70;;
10767;SDS011;5436;51.162;4.162;2022-08-25T18:51:20;13.23;;;6.07;;
10767;SDS011;5436;51.162;4.162;2022-08-25T18:54:46;11.90;;;5.60;;
10767;SDS011;5436;51.162;4.162;2022-08-25T18:57:28;10.63;;;5.30;;
10767;SDS011;5436;51.162;4.162;2022-08-25T19:00:08;14.13;;;6.20;;
10767;SDS011;5436;51.162;4.162;2022-08-25T19:03:15;16.47;;;5.50;;
10767;SDS011;5436;51.162;4.162;2022-08-25T19:06:09;13.73;;;5.00;;
10767;SDS011;5436;51.162;4.162;2022-08-25T19:08:41;15.33;;;4.70;;
10767;SDS011;5436;51.162;4.162;2022-08-25T19:11:10;13.80;;;4.90;;
10767;SDS011;5436;51.162;4.162;2022-08-25T19:13:40;10.53;;;4.20;;
10767;SDS011;5436;51.162;4.162;2022-08-25T19:16:10;7.27;;;4.20;;
10767;SDS011;5436;51.162;4.162;2022-08-25T19:18:39;12.73;;;4.17;;
10767;SDS011;5436;51.162;4.162;2022-08-25T19:21:08;10.57;;;4.00;;
10767;SDS011;5436;51.162;4.162;2022-08-25T19:23:37;8.77;;;3.63;;
10767;SDS011;5436;51.162;4.162;2022-08-25T19:26:09;6.40;;;3.60;;
10767;SDS011;5436;51.162;4.162;2022-08-25T19:28:38;6.57;;;3.03;;
10767;SDS011;5436;51.162;4.162;2022-08-25T19:31:07;8.73;;;3.30;;
10767;SDS011;5436;51.162;4.162;2022-08-25T19:33:36;9.57;;;2.80;;
10767;SDS011;5436;51.162;4.162;2022-08-25T19:36:06;9.07;;;2.90;;
10767;SDS011;5436;51.162;4.162;2022-08-25T19:38:36;8.83;;;3.23;;
10767;SDS011;5436;51.162;4.162;2022-08-25T19:41:09;8.57;;;2.60;;
10767;SDS011;5436;51.162;4.162;2022-08-25T19:43:38;8.67;;;2.73;;
10767;SDS011;5436;51.162;4.162;2022-08-25T19:46:07;7.67;;;2.97;;
10767;SDS011;5436;51.162;4.162;2022-08-25T19:51:26;9.30;;;2.70;;
10767;SDS011;5436;51.162;4.162;2022-08-25T19:54:31;7.07;;;2.60;;
10767;SDS011;5436;51.162;4.162;2022-08-25T19:58:08;9.63;;;2.00;;
10767;SDS011;5436;51.162;4.162;2022-08-25T20:03:55;6.57;;;2.10;;
10767;SDS011;5436;51.162;4.162;2022-08-25T20:06:24;7.53;;;2.50;;
10767;SDS011;5436;51.162;4.162;2022-08-25T20:08:55;4.53;;;1.93;;
10767;SDS011;5436;51.162;4.162;2022-08-25T20:11:24;7.53;;;2.40;;
10767;SDS011;5436;51.162;4.162;2022-08-25T20:13:55;8.47;;;2.40;;
10767;SDS011;5436;51.162;4.162;2022-08-25T20:16:24;4.37;;;2.27;;
10767;SDS011;5436;51.162;4.162;2022-08-25T20:18:53;10.33;;;2.70;;
10767;SDS011;5436;51.162;4.162;2022-08-25T20:21:25;8.60;;;3.50;;
10767;SDS011;5436;51.162;4.162;2022-08-25T20:23:54;7.50;;;3.73;;
10767;SDS011;5436;51.162;4.162;2022-08-25T20:26:35;10.13;;;3.67;;
10767;SDS011;5436;51.162;4.162;2022-08-25T20:29:06;6.93;;;3.23;;
10767;SDS011;5436;51.162;4.162;2022-08-25T20:31:35;9.93;;;3.30;;
10767;SDS011;5436;51.162;4.162;2022-08-25T20:34:04;8.77;;;3.07;;
10767;SDS011;5436;51.162;4.162;2022-08-25T20:36:33;11.50;;;4.17;;
10767;SDS011;5436;51.162;4.162;2022-08-25T20:39:02;12.73;;;4.30;;
10767;SDS011;5436;51.162;4.162;2022-08-25T20:41:32;12.63;;;4.60;;
10767;SDS011;5436;51.162;4.162;2022-08-25T20:44:02;12.10;;;5.30;;
10767;SDS011;5436;51.162;4.162;2022-08-25T20:46:34;12.90;;;6.73;;
10767;SDS011;5436;51.162;4.162;2022-08-25T20:49:03;18.90;;;6.60;;
10767;SDS011;5436;51.162;4.162;2022-08-25T20:51:32;11.53;;;6.90;;
10767;SDS011;5436;51.162;4.162;2022-08-25T20:54:01;15.73;;;7.03;;
10767;SDS011;5436;51.162;4.162;2022-08-25T20:56:29;16.47;;;7.93;;
10767;SDS011;5436;51.162;4.162;2022-08-25T20:59:00;12.97;;;7.37;;
10767;SDS011;5436;51.162;4.162;2022-08-25T21:01:29;13.40;;;7.00;;
10767;SDS011;5436;51.162;4.162;2022-08-25T21:04:09;14.10;;;7.23;;
10767;SDS011;5436;51.162;4.162;2022-08-25T21:06:40;15.93;;;6.90;;
10767;SDS011;5436;51.162;4.162;2022-08-25T21:09:25;12.53;;;7.07;;
10767;SDS011;5436;51.162;4.162;2022-08-25T21:11:55;16.57;;;6.93;;
10767;SDS011;5436;51.162;4.162;2022-08-25T21:14:25;12.20;;;6.13;;
10767;SDS011;5436;51.162;4.162;2022-08-25T21:16:54;10.43;;;6.03;;
10767;SDS011;5436;51.162;4.162;2022-08-25T21:22:24;9.37;;;4.47;;
10767;SDS011;5436;51.162;4.162;2022-08-25T21:24:53;9.00;;;4.40;;
10767;SDS011;5436;51.162;4.162;2022-08-25T21:27:23;9.00;;;4.40;;
10767;SDS011;5436;51.162;4.162;2022-08-25T21:29:52;8.60;;;3.53;;
10767;SDS011;5436;51.162;4.162;2022-08-25T21:32:21;10.07;;;3.10;;
10767;SDS011;5436;51.162;4.162;2022-08-25T21:34:54;12.90;;;3.20;;
10767;SDS011;5436;51.162;4.162;2022-08-25T21:37:23;7.00;;;2.80;;
10767;SDS011;5436;51.162;4.162;2022-08-25T21:39:53;10.53;;;3.30;;
10767;SDS011;5436;51.162;4.162;2022-08-25T21:42:22;12.47;;;3.57;;
10767;SDS011;5436;51.162;4.162;2022-08-25T21:44:51;7.87;;;2.20;;
10767;SDS011;5436;51.162;4.162;2022-08-25T21:47:20;7.53;;;2.57;;
10767;SDS011;5436;51.162;4.162;2022-08-25T21:49:50;6.83;;;2.77;;
10767;SDS011;5436;51.162;4.162;2022-08-25T21:52:23;9.70;;;2.57;;
10767;SDS011;5436;51.162;4.162;2022-08-25T21:54:51;8.57;;;2.30;;
10767;SDS011;5436;51.162;4.162;2022-08-25T21:57:21;6.87;;;2.40;;
10767;SDS011;5436;51.162;4.162;2022-08-25T21:59:50;6.40;;;2.37;;
10767;SDS011;5436;51.162;4.162;2022-08-25T22:02:21;9.30;;;2.33;;
10767;SDS011;5436;51.162;4.162;2022-08-25T22:04:51;9.23;;;2.00;;
10767;SDS011;5436;51.162;4.162;2022-08-25T22:07:25;7.23;;;2.00;;
10767;SDS011;5436;51.162;4.162;2022-08-25T22:09:54;5.57;;;2.00;;
10767;SDS011;5436;51.162;4.162;2022-08-25T22:12:23;8.83;;;2.13;;
10767;SDS011;5436;51.162;4.162;2022-08-25T22:14:52;3.53;;;1.77;;
10767;SDS011;5436;51.162;4.162;2022-08-25T22:17:21;5.03;;;2.00;;
10767;SDS011;5436;51.162;4.162;2022-08-25T22:19:51;5.77;;;1.83;;
10767;SDS011;5436;51.162;4.162;2022-08-25T22:22:20;4.50;;;1.50;;
10767;SDS011;5436;51.162;4.162;2022-08-25T22:24:53;9.13;;;1.70;;
10767;SDS011;5436;51.162;4.162;2022-08-25T22:27:24;3.57;;;1.40;;
10767;SDS011;5436;51.162;4.162;2022-08-25T22:30:00;4.20;;;1.83;;
10767;SDS011;5436;51.162;4.162;2022-08-25T22:35:01;5.40;;;1.60;;
10767;SDS011;5436;51.162;4.162;2022-08-25T22:37:30;5.03;;;1.50;;
10767;SDS011;5436;51.162;4.162;2022-08-25T22:40:03;6.13;;;1.30;;
10767;SDS011;5436;51.162;4.162;2022-08-25T22:42:33;5.23;;;1.40;;
10767;SDS011;5436;51.162;4.162;2022-08-25T22:45:02;5.57;;;1.60;;
10767;SDS011;5436;51.162;4.162;2022-08-25T22:47:33;6.20;;;1.40;;
10767;SDS011;5436;51.162;4.162;2022-08-25T22:50:02;3.90;;;1.20;;
10767;SDS011;5436;51.162;4.162;2022-08-25T22:52:32;4.33;;;1.03;;
10767;SDS011;5436;51.162;4.162;2022-08-25T22:55:05;3.83;;;1.10;;
10767;SDS011;5436;51.162;4.162;2022-08-25T22:57:35;2.40;;;1.03;;
10767;SDS011;5436;51.162;4.162;2022-08-25T23:00:05;3.63;;;1.00;;
10767;SDS011;5436;51.162;4.162;2022-08-25T23:02:35;3.87;;;1.03;;
10767;SDS011;5436;51.162;4.162;2022-08-25T23:05:05;2.20;;;1.07;;
10767;SDS011;5436;51.162;4.162;2022-08-25T23:07:35;2.37;;;0.90;;
10767;SDS011;5436;51.162;4.162;2022-08-25T23:10:08;5.40;;;0.97;;
10767;SDS011;5436;51.162;4.162;2022-08-25T23:12:38;5.47;;;1.10;;
10767;SDS011;5436;51.162;4.162;2022-08-25T23:15:09;4.23;;;1.10;;
10767;SDS011;5436;51.162;4.162;2022-08-25T23:17:38;5.30;;;1.07;;
10767;SDS011;5436;51.162;4.162;2022-08-25T23:20:08;4.37;;;0.70;;
10767;SDS011;5436;51.162;4.162;2022-08-25T23:22:49;2.50;;;0.90;;
10767;SDS011;5436;51.162;4.162;2022-08-25T23:25:21;2.03;;;0.90;;
10767;SDS011;5436;51.162;4.162;2022-08-25T23:27:49;3.33;;;0.90;;
10767;SDS011;5436;51.162;4.162;2022-08-25T23:30:18;2.43;;;0.90;;
10767;SDS011;5436;51.162;4.162;2022-08-25T23:32:47;1.30;;;0.80;;
10767;SDS011;5436;51.162;4.162;2022-08-25T23:35:16;3.70;;;0.90;;
10767;SDS011;5436;51.162;4.162;2022-08-25T23:37:45;4.87;;;1.10;;
10767;SDS011;5436;51.162;4.162;2022-08-25T23:40:15;2.67;;;0.73;;
10767;SDS011;5436;51.162;4.162;2022-08-25T23:42:47;3.30;;;1.00;;
10767;SDS011;5436;51.162;4.162;2022-08-25T23:45:16;2.60;;;0.90;;
10767;SDS011;5436;51.162;4.162;2022-08-25T23:47:45;2.43;;;1.07;;
10767;SDS011;5436;51.162;4.162;2022-08-25T23:50:14;4.83;;;1.03;;
10767;SDS011;5436;51.162;4.162;2022-08-25T23:52:43;3.17;;;1.30;;
10767;SDS011;5436;51.162;4.162;2022-08-25T23:55:11;3.17;;;1.07;;
10767;SDS011;5436;51.162;4.162;2022-08-25T23:57:40;4.13;;;1.20;;
